Portada
METAR-TAF:

METAR-TAF

Aeropuertos :

Aghajari, Irán

latitud: 30-46N, longitud: 049-40E, altitud: 29 m

Observación

El informe se hizo hace 7 horas y 13 minutos, a las 17:00 UTC
Viento 4 kt del norte-noroeste
Temperatura 35°C
Humedad 30%
Presión 1008 hPa
Visibilidad: 8000 m

METAR: OIAG 251700Z 34004KT 8000 NSC 35/15 Q1008

Hora: 04:43 (00:13 UTC)


TAF: falta

Observaciones y pronósticos meteorológicos de más de 4000 aeropuertos (mensajes METAR y TAF).

Los puntos amarillos y rojos representan las estaciones disponibles.

Ponga el ratón en el punto deseado para ver el nombre de la estación.

Haga clic para ver las observaciones y los pronósticos meteorológicos.

Para cambiar el mapa : haga clic en los botones verdes con una cruz de color negro para hacer un zoom, en el botón verde con un guión para alejar o en las flechas verdes para mapas adyacentes.


METAR-TAF: